Weather observations for the past three days for
Olive Branch, Olive Branch Airport
| Date | Time (cdt) | Wind (kph) | Vis. (km) | Weather | Sky Cond. | Temperature (ºC) | Relative Humidity | Wind Chill (°C) | Heat Index (°C) | Pressure | Precipitation (cm) | ||||||
|---|---|---|---|---|---|---|---|---|---|---|---|---|---|---|---|---|---|
| Air | Dwpt | 6 hour | altimeter (cm) | sea level (mb) | 1 hr | 3 hr | 6 hr | ||||||||||
| Max. | Min. | ||||||||||||||||
| 04 | 17:50 | S 30 G 41 | 16.09 | Partly Cloudy | SCT070 | 25 | 8 | 34% | 26 | 75.77 | 0.0 | ||||||
| 04 | 16:50 | SW 28 G 41 | 16.09 | Partly Cloudy | SCT070 | 26 | 8 | 32% | 26 | 75.77 | 0.0 | ||||||
| 04 | 15:50 | SW 31 G 46 | 16.09 | Fair | CLR | 27 | 8 | 30% | 26 | 75.79 | 0.0 | ||||||
| 04 | 14:50 | SW 33 G 46 | 16.09 | Partly Cloudy and Breezy | SCT075 | 27 | 9 | 32% | 27 | 75.87 | 0.0 | ||||||
| 04 | 13:50 | SW 30 G 44 | 16.09 | Partly Cloudy | SCT065 | 27 | 9 | 32% | 27 | 75.92 | 0.0 | ||||||
| 04 | 12:50 | SW 31 G 44 | 16.09 | Fair | CLR | 26 | 9 | 34% | 26 | 75.97 | 0.0 | ||||||
| 04 | 11:50 | SW 20 G 33 | 16.09 | Fair | CLR | 25 | 11 | 42% | 26 | 76.02 | 0.0 | ||||||
| 04 | 10:50 | SW 20 G 33 | 16.09 | Fair | CLR | 24 | 11 | 44% | 25 | 76.07 | 0.0 | ||||||
| 04 | 09:50 | SW 13 G 28 | 16.09 | Fair | CLR | 21 | 12 | 57% | 76.12 | 0.0 | |||||||
| 04 | 08:50 | SW 22 | 16.09 | Fair | CLR | 19 | 12 | 64% | 76.1 | 0.0 | |||||||
| 04 | 07:50 | S 15 | 16.09 | Fair | CLR | 16 | 11 | 72% | 76.07 | 0.0 | |||||||
| 04 | 06:50 | S 13 | 16.09 | Fair | CLR | 14 | 10 | 77% | 76.05 | 0.0 | |||||||
| 04 | 06:35 | S 13 | 16.09 | Fair | CLR | 13 | 10 | 82% | 76.05 | 0.0 | |||||||
| 04 | 06:15 | S 13 | 16.09 | Fair | CLR | 13 | 10 | 82% | 76.02 | 0.0 | |||||||
| 04 | 05:55 | S 13 | 16.09 | Fair | CLR | 13 | 9 | 77% | 76.02 | 0.0 | |||||||
| 04 | 05:35 | S 15 | 16.09 | Fair | CLR | 13 | 9 | 77% | 76.02 | 0.0 | |||||||
| 04 | 05:15 | S 13 | 16.09 | A Few Clouds | FEW060 | 13 | 9 | 77% | 76.05 | 0.0 | |||||||
| 04 | 04:55 | S 13 | 16.09 | A Few Clouds | FEW060 | 13 | 9 | 77% | 76.05 | 0.0 | |||||||
| 04 | 04:35 | S 13 | 16.09 | Fair | CLR | 14 | 9 | 72% | 76.05 | 0.0 | |||||||
| 04 | 04:15 | S 13 | 16.09 | Fair | CLR | 14 | 9 | 72% | 76.05 | 0.0 | |||||||
| 04 | 03:55 | S 15 | 16.09 | Fair | CLR | 14 | 9 | 72% | 76.07 | 0.0 | |||||||
| 04 | 03:35 | S 15 | 16.09 | Fair | CLR | 14 | 8 | 67% | 76.05 | 0.0 | |||||||
| 04 | 03:15 | S 17 | 16.09 | Fair | CLR | 14 | 8 | 67% | 76.07 | 0.0 | |||||||
| 04 | 02:55 | S 17 | 16.09 | Fair | CLR | 14 | 8 | 67% | 76.07 | 0.0 | |||||||
| 04 | 02:35 | S 17 | 16.09 | Fair | CLR | 14 | 8 | 67% | 76.1 | 0.0 | |||||||
| 04 | 02:15 | S 17 | 16.09 | Fair | CLR | 14 | 8 | 67% | 76.1 | 0.0 | |||||||
| 04 | 01:55 | S 17 | 16.09 | Fair | CLR | 14 | 8 | 67% | 76.1 | 0.0 | |||||||
| 04 | 01:35 | S 17 | 16.09 | Fair | CLR | 14 | 8 | 67% | 76.12 | 0.0 | |||||||
| 04 | 01:15 | S 13 | 16.09 | Fair | CLR | 14 | 8 | 67% | 76.15 | 0.0 | |||||||
| 04 | 00:55 | S 13 | 16.09 | Fair | CLR | 14 | 8 | 67% | 76.17 | 0.0 | |||||||
| 04 | 00:35 | S 13 | 16.09 | Fair | CLR | 14 | 7 | 63% | 76.17 | 0.0 | |||||||
| 04 | 00:15 | S 13 | 16.09 | Fair | CLR | 14 | 7 | 63% | 76.17 | 0.0 | |||||||
| 03 | 23:55 | S 13 | 16.09 | Fair | CLR | 14 | 7 | 63% | 76.17 | 0.0 | |||||||
| 03 | 23:35 | S 13 | 16.09 | Fair | CLR | 15 | 7 | 59% | 76.17 | 0.0 | |||||||
| 03 | 23:15 | S 11 | 16.09 | Fair | CLR | 15 | 7 | 59% | 76.17 | 0.0 | |||||||
| 03 | 22:55 | S 13 | 16.09 | Fair | CLR | 15 | 6 | 55% | 76.17 | 0.0 | |||||||
| 03 | 22:35 | S 9 | 16.09 | Fair | CLR | 15 | 6 | 55% | 76.17 | 0.0 | |||||||
| 03 | 22:15 | S 9 | 16.09 | Fair | CLR | 16 | 6 | 52% | 76.2 | 0.0 | |||||||
| 03 | 21:55 | S 9 | 16.09 | Fair | CLR | 16 | 6 | 52% | 76.2 | 0.0 | |||||||
| 03 | 21:35 | S 7 | 16.09 | Fair | CLR | 16 | 6 | 52% | 76.2 | 0.0 | |||||||
| 03 | 21:15 | S 9 | 16.09 | Fair | CLR | 16 | 6 | 52% | 76.17 | 0.0 | |||||||
| 03 | 19:50 | S 9 | 16.09 | Fair | CLR | 19 | 5 | 40% | 76.17 | 0.0 | |||||||
| 03 | 18:50 | SW 13 | 16.09 | Fair | CLR | 21 | 4 | 33% | 76.17 | 0.0 | |||||||
| 03 | 17:50 | W 15 G 26 | 16.09 | Fair | CLR | 23 | 2 | 25% | 76.23 | 0.0 | |||||||
| 03 | 16:50 | W 15 G 30 | 16.09 | Fair | CLR | 24 | 2 | 24% | 25 | 76.28 | 0.0 | ||||||
| 03 | 15:50 | SW 20 G 30 | 16.09 | Fair | CLR | 24 | 2 | 24% | 25 | 76.33 | 0.0 | ||||||
| 03 | 14:50 | SW 20 | 16.09 | Fair | CLR | 23 | 2 | 25% | 76.4 | 0.0 | |||||||
| 03 | 13:50 | W 22 G 33 | 16.09 | Fair | CLR | 22 | 3 | 29% | 76.48 | 0.0 | |||||||
| 03 | 12:50 | W 22 G 33 | 16.09 | Fair | CLR | 22 | 4 | 31% | 76.56 | 0.0 | |||||||
| 03 | 11:50 | SW 19 | 16.09 | Fair | CLR | 20 | 4 | 35% | 76.63 | 0.0 | |||||||
| 03 | 10:50 | S 13 | 16.09 | Fair | CLR | 18 | 4 | 40% | 76.66 | 0.0 | |||||||
| 03 | 08:50 | S 9 | 16.09 | Fair | CLR | 13 | 4 | 55% | 76.66 | 0.0 | |||||||
| 03 | 07:50 | S 13 | 16.09 | Fair | CLR | 11 | 6 | 72% | 76.66 | 0.0 | |||||||
| 03 | 06:50 | S 7 | 16.09 | Fair | CLR | 7 | 5 | 87% | 6 | 76.63 | 0.0 | ||||||
| 03 | 06:35 | S 7 | 16.09 | Fair | CLR | 7 | 5 | 87% | 6 | 76.61 | 0.0 | ||||||
| 03 | 06:15 | S 6 | 16.09 | Fair | CLR | 7 | 5 | 87% | 76.58 | 0.0 | |||||||
| 03 | 05:55 | Calm | 16.09 | Fair | CLR | 7 | 5 | 87% | 76.56 | 0.0 | |||||||
| 03 | 05:35 | Calm | 16.09 | Fair | CLR | 7 | 5 | 87% | 76.56 | 0.0 | |||||||
| 03 | 05:15 | Calm | 16.09 | Fair | CLR | 7 | 5 | 87% | 76.56 | 0.0 | |||||||
| 03 | 04:55 | SE 7 | 16.09 | Fair | CLR | 8 | 5 | 82% | 7 | 76.56 | 0.0 | ||||||
| 03 | 04:35 | Calm | 16.09 | Fair | CLR | 8 | 5 | 82% | 76.56 | 0.0 | |||||||
| 03 | 04:15 | Calm | 16.09 | Fair | CLR | 8 | 5 | 82% | 76.56 | 0.0 | |||||||
| 03 | 03:55 | Calm | 16.09 | Fair | CLR | 8 | 5 | 82% | 76.56 | 0.0 | |||||||
| 03 | 03:35 | Calm | 16.09 | Fair | CLR | 8 | 5 | 82% | 76.56 | 0.0 | |||||||
| 03 | 03:15 | E 7 | 16.09 | Fair | CLR | 9 | 5 | 76% | 8 | 76.53 | 0.0 | ||||||
| 03 | 02:55 | Calm | 16.09 | Fair | CLR | 9 | 4 | 71% | 76.53 | 0.0 | |||||||
| 03 | 02:35 | Calm | 16.09 | Fair | CLR | 9 | 4 | 71% | 76.53 | 0.0 | |||||||
| 03 | 02:15 | Calm | 16.09 | Fair | CLR | 10 | 5 | 71% | 76.53 | 0.0 | |||||||
| 03 | 01:55 | Calm | 16.09 | Fair | CLR | 10 | 4 | 67% | 76.53 | 0.0 | |||||||
| 03 | 01:35 | Calm | 16.09 | Fair | CLR | 10 | 4 | 67% | 76.53 | 0.0 | |||||||
| 03 | 01:15 | E 7 | 16.09 | Fair | CLR | 11 | 4 | 62% | 76.53 | 0.0 | |||||||
| 03 | 00:55 | E 6 | 16.09 | Fair | CLR | 11 | 4 | 62% | 76.53 | 0.0 | |||||||
| 03 | 00:35 | E 9 | 16.09 | Fair | CLR | 11 | 4 | 62% | 76.53 | 0.0 | |||||||
| 03 | 00:15 | E 9 | 16.09 | Fair | CLR | 12 | 4 | 58% | 76.5 | 0.0 | |||||||
| 02 | 23:55 | E 9 | 16.09 | Fair | CLR | 12 | 4 | 58% | 76.5 | 0.0 | |||||||
| 02 | 23:35 | E 11 | 16.09 | Fair | CLR | 13 | 3 | 51% | 76.48 | 0.0 | |||||||
| 02 | 23:15 | NE 11 G 20 | 16.09 | Fair | CLR | 13 | 3 | 51% | 76.48 | 0.0 | |||||||
| 02 | 22:55 | NE 15 | 16.09 | Fair | CLR | 14 | 3 | 48% | 76.48 | 0.0 | |||||||
| 02 | 22:35 | NE 13 G 24 | 16.09 | Fair | CLR | 14 | 2 | 44% | 76.45 | 0.0 | |||||||
| 02 | 22:15 | NE 15 | 16.09 | Fair | CLR | 14 | 1 | 41% | 76.45 | 0.0 | |||||||
| 02 | 21:55 | NE 9 | 16.09 | Fair | CLR | 14 | 1 | 41% | 76.43 | 0.0 | |||||||
| 02 | 21:35 | N 9 | 16.09 | Fair | CLR | 14 | 1 | 41% | 76.4 | 0.0 | |||||||
| 02 | 21:15 | N 9 | 16.09 | Fair | CLR | 15 | 1 | 39% | 76.4 | 0.0 | |||||||
| 02 | 19:50 | N 11 | 16.09 | Fair | CLR | 15 | 1 | 39% | 76.33 | 0.0 | |||||||
| 02 | 18:50 | NW 28 G 37 | 16.09 | Partly Cloudy | SCT085 | 19 | 0 | 28% | 76.25 | 0.0 | |||||||
| 02 | 17:50 | NW 28 G 37 | 16.09 | Partly Cloudy | SCT095 | 21 | 0 | 25% | 76.25 | 0.0 | |||||||
| 02 | 16:50 | NW 28 | 16.09 | Partly Cloudy | SCT080 | 22 | 1 | 25% | 76.25 | 0.0 | |||||||
| 02 | 15:50 | NW 20 G 39 | 16.09 | Partly Cloudy | FEW075 SCT085 | 21 | 1 | 27% | 76.25 | 0.0 | |||||||
| 02 | 14:50 | NW 15 G 30 | 16.09 | Mostly Cloudy | FEW075 BKN090 | 20 | 1 | 28% | 76.3 | 0.0 | |||||||
| 02 | 13:50 | W 17 G 28 | 16.09 | Partly Cloudy | SCT075 SCT090 | 21 | 2 | 29% | 76.33 | 0.0 | |||||||
| 02 | 12:50 | NW 20 G 33 | 16.09 | Partly Cloudy | FEW075 SCT095 | 20 | 1 | 28% | 76.38 | 0.0 | |||||||
| 02 | 11:50 | W 20 | 16.09 | A Few Clouds | FEW050 | 20 | 1 | 28% | 76.4 | 0.0 | |||||||
| 02 | 10:50 | NW 19 G 26 | 16.09 | Fair | CLR | 19 | 1 | 30% | 76.43 | 0.0 | |||||||
| 02 | 09:50 | NW 9 | 16.09 | Fair | CLR | 18 | 1 | 32% | 76.4 | 0.0 | |||||||
| 02 | 08:50 | E 6 | 16.09 | Fair | CLR | 15 | 4 | 48% | 76.4 | 0.0 | |||||||
| 02 | 07:50 | N 6 | 16.09 | Fair | CLR | 12 | 5 | 63% | 76.35 | 0.0 | |||||||
| 02 | 06:50 | Calm | 16.09 | Fair | CLR | 10 | 5 | 71% | 76.3 | 0.0 | |||||||
| 02 | 06:35 | Calm | 16.09 | Fair | CLR | 8 | 5 | 82% | 76.3 | 0.0 | |||||||
| 02 | 06:15 | Calm | 16.09 | Fair | CLR | 7 | 5 | 87% | 76.3 | 0.0 | |||||||
| 02 | 05:55 | Calm | 16.09 | Fair | CLR | 8 | 5 | 82% | 76.28 | 0.0 | |||||||
| 02 | 05:35 | Calm | 16.09 | Fair | CLR | 8 | 5 | 82% | 76.25 | 0.0 | |||||||
| 02 | 05:15 | Calm | 16.09 | Fair | CLR | 7 | 5 | 87% | 76.25 | 0.0 | |||||||
| 02 | 04:55 | Calm | 16.09 | Fair | CLR | 7 | 5 | 87% | 76.25 | 0.0 | |||||||
| 02 | 04:35 | Calm | 16.09 | Fair | CLR | 8 | 4 | 76% | 76.25 | 0.0 | |||||||
| 02 | 04:15 | Calm | 16.09 | Fair | CLR | 8 | 4 | 76% | 76.25 | 0.0 | |||||||
| 02 | 03:55 | Calm | 16.09 | Fair | CLR | 9 | 3 | 66% | 76.23 | 0.0 | |||||||
| 02 | 03:35 | Calm | 16.09 | Fair | CLR | 10 | 3 | 62% | 76.23 | 0.0 | |||||||
| 02 | 03:15 | NE 6 | 16.09 | Fair | CLR | 9 | 4 | 71% | 76.23 | 0.0 | |||||||
| 02 | 02:55 | Calm | 16.09 | Fair | CLR | 10 | 4 | 67% | 76.25 | 0.0 | |||||||
| 02 | 02:35 | Calm | 16.09 | Fair | CLR | 11 | 2 | 54% | 76.25 | 0.0 | |||||||
| 02 | 02:15 | E 6 | 16.09 | Fair | CLR | 12 | 1 | 47% | 76.25 | 0.0 | |||||||
| 02 | 01:55 | NE 7 | 16.09 | Fair | CLR | 13 | 1 | 44% | 76.25 | 0.0 | |||||||
| 02 | 01:35 | Vrbl 7 | 16.09 | Fair | CLR | 13 | 1 | 44% | 76.28 | 0.0 | |||||||
| 02 | 01:15 | NE 11 | 16.09 | Fair | CLR | 13 | 1 | 44% | 76.28 | 0.0 | |||||||
| 02 | 00:55 | NE 11 | 16.09 | Fair | CLR | 13 | 1 | 44% | 76.3 | 0.0 | |||||||
| 02 | 00:35 | NE 9 | 16.09 | Fair | CLR | 13 | 1 | 44% | 76.28 | 0.0 | |||||||
| 02 | 00:15 | NE 9 | 16.09 | Fair | CLR | 14 | 1 | 41% | 76.25 | 0.0 | |||||||
| 01 | 23:55 | NE 6 | 16.09 | Fair | CLR | 13 | 1 | 44% | 76.25 | 0.0 | |||||||
| 01 | 23:35 | NE 7 | 16.09 | Fair | CLR | 14 | 0 | 39% | 76.25 | 0.0 | |||||||
| 01 | 23:15 | NE 7 | 16.09 | Fair | CLR | 14 | 0 | 39% | 76.25 | 0.0 | |||||||
| 01 | 22:55 | NE 7 | 16.09 | Fair | CLR | 14 | 1 | 41% | 76.23 | 0.0 | |||||||
| 01 | 22:35 | NE 13 | 16.09 | Fair | CLR | 14 | 1 | 41% | 76.23 | 0.0 | |||||||
| 01 | 22:15 | N 13 | 16.09 | Fair | CLR | 14 | 1 | 41% | 76.2 | 0.0 | |||||||
| 01 | 21:55 | N 11 | 16.09 | Fair | CLR | 13 | 2 | 47% | 76.23 | 0.0 | |||||||
| 01 | 21:35 | N 9 | 16.09 | Fair | CLR | 14 | 2 | 44% | 76.25 | 0.0 | |||||||
| 01 | 21:15 | N 9 | 16.09 | Fair | CLR | 13 | 3 | 51% | 76.28 | 0.0 | |||||||
| 01 | 19:50 | NE 9 | 16.09 | Fair | CLR | 16 | 2 | 39% | 76.17 | 0.0 | |||||||
| 01 | 18:50 | NE 15 | 16.09 | Fair | CLR | 17 | 2 | 37% | 76.15 | 0.0 | |||||||
| Date | Time (cdt) | Wind (kph) | Vis. (km) | Weather | Sky Cond. | Air | Dwpt | Max. | Min. | Relative Humidity | Wind Chill (°C) | Heat Index (°C) | altimeter (cm) | sea level (mb) | 1 hr | 3 hr | 6 hr |
| 6 hour | |||||||||||||||||
| Temperature (ºC) | Pressure | Precipitation (cm) | |||||||||||||||